METAR AND TAF INFORMATION
METAR FOR SARC
ADDS - METARS form results

(0928 UTC 21 January 2019)
Data provider http://aviationweather.gov/metar/data/
 
METAR text: SARC 210900Z 00000KT 5000 MIFG NSC 20/20 Q1012
Conditions at: SARC (CORRIENTES AIRPO, AR) observed 0900 UTC 21 January 2019
Temperature: 20.0°C (68°F)
Dewpoint: 20.0°C (68°F) [RH = 100%]
Pressure (altimeter): 29.88 inches Hg (1012.0 mb)
Winds: calm
Visibility: 3 miles ( 5 km)
Ceiling: at least 12,000 feet AGL
Clouds: sky clear below 12,000 feet AGL
Weather: MIFG  (shallow fog)

 AIRPORT MAP

 RUNWAY INFORMATION

 AIRPORT FREQUENCIES
Type TWR Name TWR Frequency 118.3 MHZ

 AIRPORT NEAR NAVIGATION AIDS
Type NDB Name Corrientes Frequency 305 KHZ
Type VOR-DME Name Corrientes Frequency 115400 KHZ



Powered by Virtual Airlines Manager [v2.6.2]